Capitol Logistics 7568

Operating for MZN



KSFO
San Francisco International Airport
San Francisco, California
KCVG
Cincinnati/Northern Kentucky International Airport
Covington, Kentucky

Activity Log

Date Flight Route Aircraft Duration
No Flights Yet

Route Details

Aircraft Information
Primary: Boeing 767-300BDSF
Backup: Boeing 757-200SF
Route Data
Distance: 2033nm
Duration: 3h 56m
Recm'd Route: NIITE3 TIPRE Q126 INSLO DTA RIFMN DBL J80 HLC J80 MCI ENL SARGO3
Origin Wx: KSFO 180156Z 30015G23KT 10SM FEW005 16/07 A3001 RMK AO2 PK WND 29027/0115 SLP161 T01560067
Dest. Wx: KCVG 180152Z 21003KT 10SM CLR 07/04 A2993 RMK AO2 SLP133 T00720039
Notes: